Airfield :
LOGIN :

Register | Disclaimer

   EN    FR    IT 

 










Legend :    VFR   Marginal VFR   IFR   Intensive IFR   Very Intensive IFR
Visi :
Ceiling :
>= 8 km
>= 3000ft
5 to 8 km
1000 to 3000 ft
1500m to 5 km
500 to 1000 ft
800 to 1500m
200 to 500 ft
< 800m
< 200 ft
Symbols :   Thunderstorms  Fog  Heavy snow  Heavy precipitations  Wind > 20 kt
SIGMETs :     Misc.  Thunderstorms  Icing  Turbulence  Mountain Waves  Volcanic Ashes







- Airport Elevation : 3 ft
- IATA code : LWR


EHLW - Leuuwarden Air Base

CURRENT METAR :
  • 240055Z AUTO 32005KT 9999 OVC110 12/10 Q1023 BLU

EXPIRED METARs :
  • 240025Z AUTO 32005KT 280V350 9999 FEW019 BKN099 OVC110 11/09 Q1023 BLU
  • 232355Z AUTO 33005KT 290V360 9999 BKN093 OVC099 12/10 Q1024 BLU
  • 232339Z AUTO 33004KT 290V360 9999 FEW021 SCT025 OVC093 12/10 Q1024 BLU
  • 232325Z AUTO 32004KT 290V360 9999 BKN017 BKN020 OVC024 12/10 Q1024 WHT
  • 232303Z AUTO 33004KT 9999 SCT017 OVC092 12/10 Q1024 WHT
  • 232255Z AUTO 33004KT 9999 OVC092 12/10 Q1024 BLU
  • 232226Z AUTO 34004KT 300V010 9999 FEW020 OVC094 12/10 Q1024 BLU
  • 232225Z AUTO 34005KT 290V010 9999 SCT020 OVC092 12/10 Q1024 WHT
  • 232214Z AUTO 34005KT 290V360 9999 FEW015CB SCT020 OVC093 12/10 Q1024 WHT
  • 232210Z AUTO 33004KT 300V010 9999 -DZ FEW015CB SCT036 BKN046 12/10 Q1024 BLU
  • 232204Z AUTO 33005KT 300V010 9999 -DZRA FEW015CB SCT023 BKN037 12/10 Q1024 WHT
  • 232155Z AUTO 32005KT 290V350 9999 FEW015CB BKN018 BKN022 BKN027 12/10 Q1024 WHT

Expired Forecast.
No reported NOTAMs for that airfield.



MET'MAP, your aeronautical weather chart ! - Copyright ORBIFLY December 2007 - Disclaimer

ORBIFLY MET'MAP TEAM :

Programming & Development : Alexandra Zaïnal
Concept & Development : Baudouin d'Aumeries
Co-Development & Prog : Marc-Olivier Méhu
Technical & hardware support : Manuel Goepfert

Contact : metmap@orbifly.com




SOURCES & CREDITS :

   NOAA